createdAt,value
2023-01-01T00:56:29.490Z,7.57
2023-01-01T01:01:22.945Z,7.48
2023-01-01T01:06:18.474Z,7.54
2023-01-01T01:17:44.152Z,7.41
2023-01-01T01:22:38.580Z,7.48
2023-01-01T01:27:32.092Z,7.55
2023-01-01T01:32:25.500Z,7.63
2023-01-01T01:37:20.232Z,7.66
2023-01-01T01:42:18.376Z,7.60
2023-01-01T01:47:17.332Z,7.84
2023-01-01T01:52:11.051Z,7.90
2023-01-01T01:57:10.849Z,7.89
2023-01-01T02:02:04.539Z,7.95
2023-01-01T02:06:58.418Z,8.01
2023-01-01T02:11:51.791Z,8.04
2023-01-01T03:55:02.203Z,8.00
2023-01-01T05:56:27.433Z,9.02
2023-01-01T06:01:24.304Z,9.33
2023-01-01T12:28:40.872Z,11.50
2023-01-01T12:34:06.136Z,11.63
2023-01-01T12:39:59.675Z,11.72
2023-01-01T12:45:42.574Z,11.84
2023-01-01T12:50:57.253Z,11.79
2023-01-01T12:56:22.443Z,11.69
2023-01-01T13:01:28.477Z,11.65
2023-01-01T13:06:35.350Z,11.69
2023-01-01T13:11:31.017Z,11.61
2023-01-01T13:16:41.774Z,11.89
2023-01-01T13:21:38.180Z,12.07
2023-01-01T13:26:43.007Z,11.98
2023-01-01T13:38:45.956Z,12.06
2023-01-01T13:43:39.311Z,12.24
2023-01-01T13:49:14.443Z,12.15
2023-01-01T14:00:58.617Z,12.20
2023-01-01T14:06:01.785Z,12.13
2023-01-01T14:10:55.184Z,12.10
2023-01-01T14:15:58.417Z,12.09
2023-01-01T14:20:54.738Z,12.18
2023-01-01T14:25:49.180Z,12.18
2023-01-01T14:31:11.580Z,12.06
2023-01-01T16:27:48.119Z,9.76
2023-01-01T16:32:42.427Z,9.53
2023-01-01T16:37:35.829Z,9.52
2023-01-01T16:42:29.143Z,9.44
2023-01-01T16:47:24.668Z,9.37
2023-01-01T16:52:18.131Z,9.40
2023-01-01T16:57:11.645Z,9.45
2023-01-01T17:02:05.258Z,9.31
2023-01-01T17:07:00.097Z,9.34
2023-01-01T17:11:53.579Z,9.00
2023-01-01T17:16:46.931Z,8.88
2023-01-01T17:21:40.369Z,8.92
2023-01-01T17:26:35.213Z,8.99
2023-01-01T17:31:29.265Z,8.94
2023-01-01T17:36:22.856Z,8.91
2023-01-01T17:41:18.082Z,8.78
2023-01-01T17:46:16.341Z,8.78
2023-01-01T17:51:10.438Z,8.73
2023-01-01T17:56:03.788Z,8.36
2023-01-01T18:01:25.623Z,8.46
2023-01-01T18:06:19.268Z,8.38
2023-01-01T18:11:12.587Z,8.43
2023-01-01T18:16:09.576Z,8.14
2023-01-01T18:21:05.432Z,8.01
2023-01-01T18:26:02.401Z,8.38
2023-01-01T18:30:55.798Z,8.39
2023-01-01T18:35:49.480Z,8.13
2023-01-01T18:41:02.635Z,8.09
2023-01-01T18:45:57.452Z,8.04
2023-01-01T18:50:51.953Z,8.06
2023-01-01T18:55:47.628Z,7.98
2023-01-01T19:00:41.109Z,7.99
2023-01-01T19:05:36.709Z,7.91
2023-01-01T19:10:38.589Z,8.05
2023-01-01T19:15:33.365Z,7.92
2023-01-01T19:20:26.710Z,7.98
2023-01-01T19:25:40.753Z,8.04
2023-01-01T19:30:35.417Z,8.02
2023-01-01T19:35:28.814Z,7.87
2023-01-01T19:40:23.929Z,7.85
2023-01-01T19:45:17.904Z,7.77
2023-01-01T19:50:16.109Z,7.70
2023-01-01T20:01:41.282Z,7.76
2023-01-01T20:06:36.575Z,7.85
2023-01-01T20:11:32.209Z,7.83
2023-01-01T20:16:27.447Z,7.77
2023-01-01T20:21:34.986Z,7.60
2023-01-01T20:26:30.116Z,7.57
2023-01-01T22:02:48.257Z,7.13
2023-01-01T22:21:20.138Z,6.89
2023-01-01T23:31:33.979Z,6.40
2023-01-01T23:42:59.251Z,6.53
2023-01-01T23:47:54.577Z,6.26
2023-01-01T23:52:48.168Z,6.10
2023-01-01T23:57:41.594Z,6.08
